sensor_id;sensor_type;location;lat;lon;timestamp;pressure;altitude;pressure_sealevel;temperature;humidity
67397;BME280;57728;50.448;18.824;2023-06-26T00:00:08;97930.72;;;20.39;49.10
67397;BME280;57728;50.448;18.824;2023-06-26T00:02:10;97902.97;;;20.25;49.13
67397;BME280;57728;50.448;18.824;2023-06-26T00:04:11;97942.22;;;20.47;49.25
67397;BME280;57728;50.448;18.824;2023-06-26T00:06:15;97946.94;;;20.46;49.31
67397;BME280;57728;50.448;18.824;2023-06-26T00:08:16;97937.94;;;20.35;49.50
67397;BME280;57728;50.448;18.824;2023-06-26T00:10:17;97936.09;;;20.31;49.29
67397;BME280;57728;50.448;18.824;2023-06-26T00:12:18;97935.25;;;20.30;49.56
67397;BME280;57728;50.448;18.824;2023-06-26T00:14:20;97940.22;;;20.33;49.40
67397;BME280;57728;50.448;18.824;2023-06-26T00:16:22;97945.19;;;20.31;49.95
67397;BME280;57728;50.448;18.824;2023-06-26T00:18:23;97921.41;;;20.11;49.45
67397;BME280;57728;50.448;18.824;2023-06-26T00:20:24;97931.88;;;20.14;49.84
67397;BME280;57728;50.448;18.824;2023-06-26T00:22:26;97940.56;;;20.26;49.62
67397;BME280;57728;50.448;18.824;2023-06-26T00:24:27;97942.78;;;20.24;49.69
67397;BME280;57728;50.448;18.824;2023-06-26T00:26:28;97952.22;;;20.23;49.46
67397;BME280;57728;50.448;18.824;2023-06-26T00:28:30;97947.81;;;20.22;49.51
67397;BME280;57728;50.448;18.824;2023-06-26T00:30:32;97939.88;;;20.16;49.58
67397;BME280;57728;50.448;18.824;2023-06-26T00:32:33;97943.38;;;20.21;49.61
67397;BME280;57728;50.448;18.824;2023-06-26T00:34:37;97922.06;;;20.03;49.87
67397;BME280;57728;50.448;18.824;2023-06-26T00:36:38;97944.22;;;20.22;50.04
67397;BME280;57728;50.448;18.824;2023-06-26T00:38:40;97942.31;;;20.17;49.93
67397;BME280;57728;50.448;18.824;2023-06-26T00:40:41;97936.19;;;20.20;49.85
67397;BME280;57728;50.448;18.824;2023-06-26T00:42:42;97940.13;;;20.19;49.72
67397;BME280;57728;50.448;18.824;2023-06-26T00:44:44;97939.28;;;20.19;50.02
67397;BME280;57728;50.448;18.824;2023-06-26T00:46:46;97927.00;;;20.06;49.97
67397;BME280;57728;50.448;18.824;2023-06-26T00:48:48;97928.59;;;20.12;49.92
67397;BME280;57728;50.448;18.824;2023-06-26T00:50:50;97945.09;;;20.17;49.66
67397;BME280;57728;50.448;18.824;2023-06-26T00:52:52;97936.81;;;20.17;49.83
67397;BME280;57728;50.448;18.824;2023-06-26T00:54:56;97942.94;;;20.14;49.89
67397;BME280;57728;50.448;18.824;2023-06-26T00:56:57;97929.25;;;20.04;50.17
67397;BME280;57728;50.448;18.824;2023-06-26T00:58:59;97936.88;;;20.12;50.20
67397;BME280;57728;50.448;18.824;2023-06-26T01:01:01;97935.00;;;20.07;50.08
67397;BME280;57728;50.448;18.824;2023-06-26T01:03:04;97906.78;;;19.86;50.19
67397;BME280;57728;50.448;18.824;2023-06-26T01:05:06;97895.31;;;19.74;50.69
67397;BME280;57728;50.448;18.824;2023-06-26T01:07:09;97933.56;;;19.91;50.72
67397;BME280;57728;50.448;18.824;2023-06-26T01:09:11;97933.09;;;19.84;50.76
67397;BME280;57728;50.448;18.824;2023-06-26T01:11:14;97934.22;;;19.77;51.34
67397;BME280;57728;50.448;18.824;2023-06-26T01:13:16;97936.75;;;19.74;51.41
67397;BME280;57728;50.448;18.824;2023-06-26T01:15:19;97936.78;;;19.69;51.78
67397;BME280;57728;50.448;18.824;2023-06-26T01:17:21;97929.16;;;19.61;51.69
67397;BME280;57728;50.448;18.824;2023-06-26T01:19:27;97914.91;;;19.48;51.79
67397;BME280;57728;50.448;18.824;2023-06-26T01:21:31;97929.22;;;19.55;51.99
67397;BME280;57728;50.448;18.824;2023-06-26T01:24:01;97929.75;;;19.57;51.50
67397;BME280;57728;50.448;18.824;2023-06-26T01:26:15;97919.28;;;19.54;51.48
67397;BME280;57728;50.448;18.824;2023-06-26T01:28:22;97911.59;;;19.51;51.75
67397;BME280;57728;50.448;18.824;2023-06-26T01:30:25;97912.09;;;19.53;51.73
67397;BME280;57728;50.448;18.824;2023-06-26T01:32:29;97921.50;;;19.52;51.69
67397;BME280;57728;50.448;18.824;2023-06-26T01:34:33;97922.47;;;19.67;51.31
67397;BME280;57728;50.448;18.824;2023-06-26T01:36:34;97847.06;;;19.18;51.52
67397;BME280;57728;50.448;18.824;2023-06-26T01:38:38;97905.19;;;19.56;51.34
67397;BME280;57728;50.448;18.824;2023-06-26T01:40:40;97886.53;;;19.42;51.68
67397;BME280;57728;50.448;18.824;2023-06-26T01:42:41;97899.22;;;19.44;51.83
67397;BME280;57728;50.448;18.824;2023-06-26T01:44:45;97889.88;;;19.39;51.99
67397;BME280;57728;50.448;18.824;2023-06-26T01:49:20;97926.03;;;19.43;52.13
67397;BME280;57728;50.448;18.824;2023-06-26T01:51:37;97917.78;;;19.38;52.36
67397;BME280;57728;50.448;18.824;2023-06-26T01:53:46;97921.13;;;19.35;52.71
67397;BME280;57728;50.448;18.824;2023-06-26T01:55:59;97921.44;;;19.33;52.63
67397;BME280;57728;50.448;18.824;2023-06-26T01:58:08;97887.16;;;19.10;52.89
67397;BME280;57728;50.448;18.824;2023-06-26T02:00:14;97898.13;;;19.15;52.65
67397;BME280;57728;50.448;18.824;2023-06-26T02:02:19;97858.66;;;18.85;52.60
67397;BME280;57728;50.448;18.824;2023-06-26T02:04:20;97908.66;;;19.13;53.19
67397;BME280;57728;50.448;18.824;2023-06-26T02:06:22;97873.53;;;18.89;53.01
67397;BME280;57728;50.448;18.824;2023-06-26T02:08:23;97911.34;;;19.18;53.09
67397;BME280;57728;50.448;18.824;2023-06-26T02:10:24;97915.25;;;19.17;53.43
67397;BME280;57728;50.448;18.824;2023-06-26T02:12:26;97913.28;;;19.18;53.30
67397;BME280;57728;50.448;18.824;2023-06-26T02:14:27;97913.00;;;19.19;53.33
67397;BME280;57728;50.448;18.824;2023-06-26T02:16:29;97901.78;;;19.11;53.44
67397;BME280;57728;50.448;18.824;2023-06-26T02:18:31;97911.94;;;19.15;53.87
67397;BME280;57728;50.448;18.824;2023-06-26T02:20:32;97919.09;;;19.16;53.75
67397;BME280;57728;50.448;18.824;2023-06-26T02:22:34;97906.41;;;19.15;53.90
67397;BME280;57728;50.448;18.824;2023-06-26T02:24:36;97917.44;;;19.15;54.04
67397;BME280;57728;50.448;18.824;2023-06-26T02:26:38;97814.56;;;18.51;54.46
67397;BME280;57728;50.448;18.824;2023-06-26T02:28:39;97908.66;;;19.13;54.62
67397;BME280;57728;50.448;18.824;2023-06-26T02:30:41;97914.75;;;19.10;54.39
67397;BME280;57728;50.448;18.824;2023-06-26T02:32:43;97906.50;;;19.05;54.73
67397;BME280;57728;50.448;18.824;2023-06-26T02:34:45;97891.16;;;18.94;54.62
67397;BME280;57728;50.448;18.824;2023-06-26T02:36:47;97756.47;;;18.08;54.40
67397;BME280;57728;50.448;18.824;2023-06-26T02:38:48;97907.09;;;19.02;54.67
67397;BME280;57728;50.448;18.824;2023-06-26T02:40:52;97892.56;;;18.86;55.10
67397;BME280;57728;50.448;18.824;2023-06-26T02:42:54;97905.19;;;18.97;55.32
67397;BME280;57728;50.448;18.824;2023-06-26T02:44:56;97907.13;;;18.97;55.09
67397;BME280;57728;50.448;18.824;2023-06-26T02:46:58;97902.22;;;18.88;55.12
67397;BME280;57728;50.448;18.824;2023-06-26T02:49:00;97840.69;;;18.53;55.58
67397;BME280;57728;50.448;18.824;2023-06-26T02:51:02;97911.84;;;18.96;55.47
67397;BME280;57728;50.448;18.824;2023-06-26T02:53:06;97863.78;;;18.68;55.44
67397;BME280;57728;50.448;18.824;2023-06-26T02:55:08;97876.91;;;18.76;55.92
67397;BME280;57728;50.448;18.824;2023-06-26T02:57:09;97871.75;;;18.69;56.01
67397;BME280;57728;50.448;18.824;2023-06-26T02:59:10;97881.31;;;18.77;55.84
67397;BME280;57728;50.448;18.824;2023-06-26T03:01:12;97890.69;;;18.81;56.14
67397;BME280;57728;50.448;18.824;2023-06-26T03:03:14;97918.97;;;18.97;56.10
67397;BME280;57728;50.448;18.824;2023-06-26T03:05:15;97909.38;;;18.95;56.48
67397;BME280;57728;50.448;18.824;2023-06-26T03:07:17;97892.84;;;18.89;56.39
67397;BME280;57728;50.448;18.824;2023-06-26T03:09:18;97904.97;;;18.94;56.27
67397;BME280;57728;50.448;18.824;2023-06-26T03:11:19;97911.53;;;18.98;56.49
67397;BME280;57728;50.448;18.824;2023-06-26T03:13:22;97912.06;;;19.00;56.69
67397;BME280;57728;50.448;18.824;2023-06-26T03:15:23;97893.41;;;18.86;56.34
67397;BME280;57728;50.448;18.824;2023-06-26T03:17:24;97898.63;;;18.93;56.56
67397;BME280;57728;50.448;18.824;2023-06-26T03:19:29;97861.50;;;18.75;56.46
67397;BME280;57728;50.448;18.824;2023-06-26T03:21:49;97884.56;;;18.84;56.70
67397;BME280;57728;50.448;18.824;2023-06-26T03:23:51;97827.22;;;18.52;57.04
67397;BME280;57728;50.448;18.824;2023-06-26T03:25:53;97901.66;;;18.92;57.06
67397;BME280;57728;50.448;18.824;2023-06-26T03:28:06;97914.59;;;18.96;56.90
67397;BME280;57728;50.448;18.824;2023-06-26T03:30:09;97890.94;;;18.85;57.14
67397;BME280;57728;50.448;18.824;2023-06-26T03:32:14;97888.50;;;18.78;57.34
67397;BME280;57728;50.448;18.824;2023-06-26T03:34:15;97869.84;;;18.65;57.07
67397;BME280;57728;50.448;18.824;2023-06-26T03:36:16;97889.91;;;18.76;57.50
67397;BME280;57728;50.448;18.824;2023-06-26T03:38:19;97917.94;;;18.93;57.63
67397;BME280;57728;50.448;18.824;2023-06-26T03:40:21;97908.59;;;18.89;57.68
67397;BME280;57728;50.448;18.824;2023-06-26T03:42:22;97909.06;;;18.96;57.66
67397;BME280;57728;50.448;18.824;2023-06-26T03:44:24;97855.53;;;18.63;58.04
67397;BME280;57728;50.448;18.824;2023-06-26T03:46:25;97912.91;;;19.00;58.03
67397;BME280;57728;50.448;18.824;2023-06-26T03:48:26;97897.19;;;18.96;57.69
67397;BME280;57728;50.448;18.824;2023-06-26T03:50:30;97883.47;;;18.85;57.98
67397;BME280;57728;50.448;18.824;2023-06-26T03:52:32;97915.31;;;19.07;57.99
67397;BME280;57728;50.448;18.824;2023-06-26T03:54:33;97910.34;;;19.09;57.97
67397;BME280;57728;50.448;18.824;2023-06-26T03:56:35;97903.75;;;19.05;57.90
67397;BME280;57728;50.448;18.824;2023-06-26T03:58:36;97897.94;;;19.06;57.61
67397;BME280;57728;50.448;18.824;2023-06-26T04:00:38;97912.78;;;19.16;57.90
67397;BME280;57728;50.448;18.824;2023-06-26T04:02:42;97901.47;;;19.12;57.96
67397;BME280;57728;50.448;18.824;2023-06-26T04:04:43;97904.44;;;19.21;57.82
67397;BME280;57728;50.448;18.824;2023-06-26T04:06:44;97915.16;;;19.22;58.18
67397;BME280;57728;50.448;18.824;2023-06-26T04:08:46;97915.72;;;19.24;57.95
67397;BME280;57728;50.448;18.824;2023-06-26T04:10:48;97907.44;;;19.24;57.82
67397;BME280;57728;50.448;18.824;2023-06-26T04:12:52;97867.41;;;18.98;57.73
67397;BME280;57728;50.448;18.824;2023-06-26T04:14:54;97898.09;;;19.20;57.70
67397;BME280;57728;50.448;18.824;2023-06-26T04:16:55;97899.75;;;19.21;58.06
67397;BME280;57728;50.448;18.824;2023-06-26T04:18:58;97919.84;;;19.27;58.27
67397;BME280;57728;50.448;18.824;2023-06-26T04:21:06;97909.63;;;19.28;58.14
67397;BME280;57728;50.448;18.824;2023-06-26T04:23:12;97912.91;;;19.30;57.99
67397;BME280;57728;50.448;18.824;2023-06-26T04:25:13;97906.81;;;19.33;58.14
67397;BME280;57728;50.448;18.824;2023-06-26T04:27:15;97894.22;;;19.21;58.10
67397;BME280;57728;50.448;18.824;2023-06-26T04:29:17;97904.56;;;19.35;58.10
67397;BME280;57728;50.448;18.824;2023-06-26T04:31:18;97888.72;;;19.21;58.09
67397;BME280;57728;50.448;18.824;2023-06-26T04:33:20;97836.00;;;18.94;57.96
67397;BME280;57728;50.448;18.824;2023-06-26T04:35:21;97900.16;;;19.34;58.10
67397;BME280;57728;50.448;18.824;2023-06-26T04:37:23;97843.28;;;19.08;58.04
67397;BME280;57728;50.448;18.824;2023-06-26T04:39:26;97890.72;;;19.40;58.05
67397;BME280;57728;50.448;18.824;2023-06-26T04:41:27;97907.19;;;19.50;57.85
67397;BME280;57728;50.448;18.824;2023-06-26T04:43:28;97912.66;;;19.55;57.77
67397;BME280;57728;50.448;18.824;2023-06-26T04:45:30;97790.81;;;18.84;57.96
67397;BME280;57728;50.448;18.824;2023-06-26T04:47:31;97864.66;;;19.27;58.23
67397;BME280;57728;50.448;18.824;2023-06-26T04:49:32;97908.19;;;19.59;57.90
67397;BME280;57728;50.448;18.824;2023-06-26T04:51:35;97904.84;;;19.63;58.42
67397;BME280;57728;50.448;18.824;2023-06-26T04:53:41;97880.63;;;19.54;58.35
67397;BME280;57728;50.448;18.824;2023-06-26T04:55:42;97903.94;;;19.67;57.97
67397;BME280;57728;50.448;18.824;2023-06-26T04:57:44;97911.34;;;19.72;58.28
67397;BME280;57728;50.448;18.824;2023-06-26T04:59:45;97902.47;;;19.75;57.82
67397;BME280;57728;50.448;18.824;2023-06-26T05:01:46;97905.22;;;19.80;57.94
67397;BME280;57728;50.448;18.824;2023-06-26T05:03:49;97893.34;;;19.80;57.90
67397;BME280;57728;50.448;18.824;2023-06-26T05:05:50;97905.63;;;19.92;58.17
67397;BME280;57728;50.448;18.824;2023-06-26T05:07:53;97892.63;;;19.93;57.83
67397;BME280;57728;50.448;18.824;2023-06-26T05:09:56;97899.16;;;20.02;57.73
67397;BME280;57728;50.448;18.824;2023-06-26T05:11:57;97891.97;;;20.01;57.49
67397;BME280;57728;50.448;18.824;2023-06-26T05:13:58;97906.50;;;20.12;57.66
67397;BME280;57728;50.448;18.824;2023-06-26T05:16:00;97871.81;;;20.01;57.71
67397;BME280;57728;50.448;18.824;2023-06-26T05:18:01;97905.75;;;20.25;57.90
67397;BME280;57728;50.448;18.824;2023-06-26T05:20:02;97911.72;;;20.33;57.58
67397;BME280;57728;50.448;18.824;2023-06-26T05:22:05;97907.25;;;20.37;57.49
67397;BME280;57728;50.448;18.824;2023-06-26T05:24:13;97894.53;;;20.36;57.65
67397;BME280;57728;50.448;18.824;2023-06-26T05:26:17;97896.72;;;20.39;57.69
67397;BME280;57728;50.448;18.824;2023-06-26T05:28:19;97889.47;;;20.43;57.58
67397;BME280;57728;50.448;18.824;2023-06-26T05:30:21;97889.94;;;20.50;57.73
67397;BME280;57728;50.448;18.824;2023-06-26T05:32:23;97879.69;;;20.51;57.58
67397;BME280;57728;50.448;18.824;2023-06-26T05:34:26;97902.94;;;20.69;57.85
67397;BME280;57728;50.448;18.824;2023-06-26T05:36:34;97904.19;;;20.76;57.60
67397;BME280;57728;50.448;18.824;2023-06-26T05:38:37;97917.13;;;20.81;57.70
67397;BME280;57728;50.448;18.824;2023-06-26T05:40:39;97894.59;;;20.88;57.32
67397;BME280;57728;50.448;18.824;2023-06-26T05:42:41;97834.00;;;20.53;57.49
67397;BME280;57728;50.448;18.824;2023-06-26T05:44:42;97896.91;;;21.00;57.39
67397;BME280;57728;50.448;18.824;2023-06-26T05:46:45;97858.75;;;20.83;57.25
67397;BME280;57728;50.448;18.824;2023-06-26T05:48:46;97884.41;;;21.02;57.49
67397;BME280;57728;50.448;18.824;2023-06-26T05:50:48;97888.63;;;21.13;56.93
67397;BME280;57728;50.448;18.824;2023-06-26T05:52:50;97906.63;;;21.30;57.08
67397;BME280;57728;50.448;18.824;2023-06-26T05:54:52;97906.22;;;21.37;56.39
67397;BME280;57728;50.448;18.824;2023-06-26T05:56:56;97890.13;;;21.39;56.58
67397;BME280;57728;50.448;18.824;2023-06-26T05:59:04;97893.53;;;21.50;56.75
67397;BME280;57728;50.448;18.824;2023-06-26T06:01:06;97890.22;;;21.47;56.69
67397;BME280;57728;50.448;18.824;2023-06-26T06:03:09;97856.41;;;21.37;56.89
67397;BME280;57728;50.448;18.824;2023-06-26T06:05:12;97897.69;;;21.66;56.58
67397;BME280;57728;50.448;18.824;2023-06-26T06:07:13;97854.75;;;21.50;56.59
67397;BME280;57728;50.448;18.824;2023-06-26T06:09:15;97880.75;;;21.68;55.92
67397;BME280;57728;50.448;18.824;2023-06-26T06:11:16;97852.13;;;21.58;56.09
67397;BME280;57728;50.448;18.824;2023-06-26T06:13:18;97895.34;;;21.87;55.98
67397;BME280;57728;50.448;18.824;2023-06-26T06:15:19;97835.31;;;21.55;55.34
67397;BME280;57728;50.448;18.824;2023-06-26T06:17:20;97875.31;;;21.90;54.98
67397;BME280;57728;50.448;18.824;2023-06-26T06:19:22;97809.63;;;21.49;54.96
67397;BME280;57728;50.448;18.824;2023-06-26T06:21:23;97896.72;;;22.12;54.47
67397;BME280;57728;50.448;18.824;2023-06-26T06:23:25;97893.84;;;22.18;54.22
67397;BME280;57728;50.448;18.824;2023-06-26T06:25:26;97884.19;;;22.15;53.97
67397;BME280;57728;50.448;18.824;2023-06-26T06:27:28;97900.00;;;22.28;54.25
67397;BME280;57728;50.448;18.824;2023-06-26T06:29:30;97905.66;;;22.37;53.86
67397;BME280;57728;50.448;18.824;2023-06-26T06:31:32;97895.38;;;22.38;53.56
67397;BME280;57728;50.448;18.824;2023-06-26T06:33:33;97896.41;;;22.42;53.49
67397;BME280;57728;50.448;18.824;2023-06-26T06:35:35;97903.16;;;22.49;53.38
67397;BME280;57728;50.448;18.824;2023-06-26T06:37:37;97862.94;;;22.38;53.64
67397;BME280;57728;50.448;18.824;2023-06-26T06:39:39;97883.19;;;22.61;53.59
67397;BME280;57728;50.448;18.824;2023-06-26T06:41:41;97904.06;;;22.81;53.13
67397;BME280;57728;50.448;18.824;2023-06-26T06:43:42;97909.19;;;22.88;52.77
67397;BME280;57728;50.448;18.824;2023-06-26T06:45:45;97889.88;;;22.83;52.44
67397;BME280;57728;50.448;18.824;2023-06-26T06:47:47;97871.53;;;22.73;52.15
67397;BME280;57728;50.448;18.824;2023-06-26T06:49:51;97895.50;;;22.92;52.34
67397;BME280;57728;50.448;18.824;2023-06-26T06:51:52;97857.41;;;22.83;52.46
67397;BME280;57728;50.448;18.824;2023-06-26T06:53:54;97842.75;;;22.92;51.82
67397;BME280;57728;50.448;18.824;2023-06-26T06:55:55;97911.84;;;23.39;51.73
67397;BME280;57728;50.448;18.824;2023-06-26T06:57:56;97909.75;;;23.44;51.86
67397;BME280;57728;50.448;18.824;2023-06-26T06:59:58;97824.66;;;22.94;51.45
67397;BME280;57728;50.448;18.824;2023-06-26T07:01:59;97891.03;;;23.27;50.86
67397;BME280;57728;50.448;18.824;2023-06-26T07:04:01;97911.72;;;23.52;51.08
67397;BME280;57728;50.448;18.824;2023-06-26T07:06:05;97783.03;;;22.72;50.75
67397;BME280;57728;50.448;18.824;2023-06-26T07:08:06;97739.88;;;22.57;50.29
67397;BME280;57728;50.448;18.824;2023-06-26T07:10:10;97909.38;;;23.68;49.90
67397;BME280;57728;50.448;18.824;2023-06-26T07:12:13;97844.66;;;23.37;49.90
67397;BME280;57728;50.448;18.824;2023-06-26T07:14:14;97805.72;;;23.19;49.55
67397;BME280;57728;50.448;18.824;2023-06-26T07:16:15;97864.41;;;23.66;50.04
67397;BME280;57728;50.448;18.824;2023-06-26T07:18:18;97846.34;;;23.46;49.58
67397;BME280;57728;50.448;18.824;2023-06-26T07:20:19;97905.09;;;23.94;49.60
67397;BME280;57728;50.448;18.824;2023-06-26T07:22:20;97904.94;;;23.99;49.18
67397;BME280;57728;50.448;18.824;2023-06-26T07:24:22;97874.44;;;23.85;48.58
67397;BME280;57728;50.448;18.824;2023-06-26T07:26:23;97753.13;;;23.23;48.13
67397;BME280;57728;50.448;18.824;2023-06-26T07:28:24;97858.78;;;23.98;48.00
67397;BME280;57728;50.448;18.824;2023-06-26T07:30:26;97813.72;;;23.69;48.23
67397;BME280;57728;50.448;18.824;2023-06-26T07:32:27;97919.44;;;24.45;47.91
67397;BME280;57728;50.448;18.824;2023-06-26T07:34:29;97818.59;;;24.04;47.61
67397;BME280;57728;50.448;18.824;2023-06-26T07:36:30;97836.44;;;24.20;47.03
67397;BME280;57728;50.448;18.824;2023-06-26T07:38:31;97832.03;;;24.19;47.13
67397;BME280;57728;50.448;18.824;2023-06-26T07:40:33;97882.28;;;24.58;47.82
67397;BME280;57728;50.448;18.824;2023-06-26T07:42:35;97829.09;;;24.42;47.19
67397;BME280;57728;50.448;18.824;2023-06-26T07:44:37;97786.53;;;24.24;46.03
67397;BME280;57728;50.448;18.824;2023-06-26T07:46:38;97736.97;;;23.91;45.81
67397;BME280;57728;50.448;18.824;2023-06-26T07:48:40;97896.53;;;25.00;45.71
67397;BME280;57728;50.448;18.824;2023-06-26T07:50:41;97826.28;;;24.60;45.47
67397;BME280;57728;50.448;18.824;2023-06-26T07:52:43;97842.03;;;24.73;44.43
67397;BME280;57728;50.448;18.824;2023-06-26T07:54:45;97820.94;;;24.63;44.14
67397;BME280;57728;50.448;18.824;2023-06-26T07:56:55;97862.81;;;24.93;43.90
67397;BME280;57728;50.448;18.824;2023-06-26T07:58:58;97827.97;;;24.69;43.27
67397;BME280;57728;50.448;18.824;2023-06-26T08:01:02;97885.88;;;25.20;43.24
67397;BME280;57728;50.448;18.824;2023-06-26T08:03:03;97895.34;;;25.36;43.16
67397;BME280;57728;50.448;18.824;2023-06-26T08:05:08;97831.34;;;25.01;42.87
67397;BME280;57728;50.448;18.824;2023-06-26T08:07:10;97894.84;;;25.43;42.71
67397;BME280;57728;50.448;18.824;2023-06-26T08:09:11;97845.91;;;25.16;42.59
67397;BME280;57728;50.448;18.824;2023-06-26T08:11:13;97858.78;;;25.29;42.84
67397;BME280;57728;50.448;18.824;2023-06-26T08:13:15;97859.13;;;25.36;42.89
67397;BME280;57728;50.448;18.824;2023-06-26T08:15:16;97807.28;;;25.05;42.40
67397;BME280;57728;50.448;18.824;2023-06-26T08:17:18;97888.91;;;25.53;41.68
67397;BME280;57728;50.448;18.824;2023-06-26T08:19:20;97868.63;;;25.44;41.61
67397;BME280;57728;50.448;18.824;2023-06-26T08:21:21;97746.44;;;24.69;41.23
67397;BME280;57728;50.448;18.824;2023-06-26T08:23:22;97886.66;;;25.85;41.15
67397;BME280;57728;50.448;18.824;2023-06-26T08:25:26;97850.84;;;25.66;41.25
67397;BME280;57728;50.448;18.824;2023-06-26T08:27:27;97874.63;;;25.94;41.31
67397;BME280;57728;50.448;18.824;2023-06-26T08:29:28;97896.94;;;26.02;40.63
67397;BME280;57728;50.448;18.824;2023-06-26T08:31:30;97879.25;;;25.89;40.63
67397;BME280;57728;50.448;18.824;2023-06-26T08:33:35;97868.03;;;25.68;40.89
67397;BME280;57728;50.448;18.824;2023-06-26T08:35:36;97870.53;;;25.61;40.37
67397;BME280;57728;50.448;18.824;2023-06-26T08:37:38;97740.69;;;24.65;40.60
67397;BME280;57728;50.448;18.824;2023-06-26T08:39:39;97724.81;;;24.57;40.83
67397;BME280;57728;50.448;18.824;2023-06-26T08:41:40;97893.63;;;25.70;40.94
67397;BME280;57728;50.448;18.824;2023-06-26T08:43:43;97866.03;;;25.69;40.85
67397;BME280;57728;50.448;18.824;2023-06-26T08:45:44;97813.97;;;25.61;41.00
67397;BME280;57728;50.448;18.824;2023-06-26T08:47:51;97755.72;;;25.38;40.47
67397;BME280;57728;50.448;18.824;2023-06-26T08:52:20;97831.22;;;26.14;40.61
67397;BME280;57728;50.448;18.824;2023-06-26T08:54:28;97873.03;;;26.65;40.11
67397;BME280;57728;50.448;18.824;2023-06-26T08:56:45;97751.59;;;25.95;39.74
67397;BME280;57728;50.448;18.824;2023-06-26T08:58:50;97745.66;;;25.97;39.03
67397;BME280;57728;50.448;18.824;2023-06-26T09:00:52;97766.53;;;26.20;39.02
67397;BME280;57728;50.448;18.824;2023-06-26T09:02:55;97815.22;;;26.65;38.55
67397;BME280;57728;50.448;18.824;2023-06-26T09:04:57;97852.69;;;26.85;38.37
67397;BME280;57728;50.448;18.824;2023-06-26T09:06:59;97637.47;;;25.48;38.35
67397;BME280;57728;50.448;18.824;2023-06-26T09:09:01;97853.84;;;26.84;38.57
67397;BME280;57728;50.448;18.824;2023-06-26T09:11:03;97821.72;;;26.57;38.55
67397;BME280;57728;50.448;18.824;2023-06-26T09:13:07;97888.66;;;26.87;39.02
67397;BME280;57728;50.448;18.824;2023-06-26T09:15:09;97876.53;;;26.83;38.61
67397;BME280;57728;50.448;18.824;2023-06-26T09:17:13;97770.59;;;26.23;38.91
67397;BME280;57728;50.448;18.824;2023-06-26T09:19:15;97836.38;;;26.66;39.07
67397;BME280;57728;50.448;18.824;2023-06-26T09:21:17;97881.94;;;27.00;38.76
67397;BME280;57728;50.448;18.824;2023-06-26T09:23:21;97799.50;;;26.60;38.54
67397;BME280;57728;50.448;18.824;2023-06-26T09:25:22;97864.19;;;27.17;37.85
67397;BME280;57728;50.448;18.824;2023-06-26T09:27:25;97774.25;;;26.78;37.89
67397;BME280;57728;50.448;18.824;2023-06-26T09:29:26;97845.41;;;27.39;37.82
67397;BME280;57728;50.448;18.824;2023-06-26T09:31:29;97799.13;;;27.17;37.71
67397;BME280;57728;50.448;18.824;2023-06-26T09:33:36;97736.69;;;27.13;37.49
67397;BME280;57728;50.448;18.824;2023-06-26T09:35:38;97847.88;;;27.77;36.74
67397;BME280;57728;50.448;18.824;2023-06-26T09:37:39;97842.50;;;27.72;36.85
67397;BME280;57728;50.448;18.824;2023-06-26T09:39:42;97776.75;;;27.17;36.81
67397;BME280;57728;50.448;18.824;2023-06-26T09:41:43;97871.91;;;27.78;36.98
67397;BME280;57728;50.448;18.824;2023-06-26T09:43:46;97640.44;;;26.27;37.10
67397;BME280;57728;50.448;18.824;2023-06-26T09:45:50;97770.19;;;27.00;36.82
67397;BME280;57728;50.448;18.824;2023-06-26T09:47:51;97834.69;;;27.41;36.87
67397;BME280;57728;50.448;18.824;2023-06-26T09:49:53;97865.59;;;27.69;37.07
67397;BME280;57728;50.448;18.824;2023-06-26T09:51:56;97846.25;;;27.89;36.69
67397;BME280;57728;50.448;18.824;2023-06-26T09:54:02;97861.50;;;28.41;35.60
67397;BME280;57728;50.448;18.824;2023-06-26T09:56:15;97751.34;;;28.21;35.75
67397;BME280;57728;50.448;18.824;2023-06-26T09:58:23;97827.84;;;29.38;36.20
67397;BME280;57728;50.448;18.824;2023-06-26T10:00:28;97855.22;;;30.25;35.01
67397;BME280;57728;50.448;18.824;2023-06-26T10:02:32;97698.53;;;29.75;33.58
67397;BME280;57728;50.448;18.824;2023-06-26T10:04:35;97810.03;;;31.08;33.08
67397;BME280;57728;50.448;18.824;2023-06-26T10:06:42;97772.53;;;31.47;32.14
67397;BME280;57728;50.448;18.824;2023-06-26T10:08:50;97674.03;;;31.16;31.58
67397;BME280;57728;50.448;18.824;2023-06-26T10:10:53;97673.59;;;31.14;31.03
67397;BME280;57728;50.448;18.824;2023-06-26T10:13:00;97812.16;;;31.84;30.75
67397;BME280;57728;50.448;18.824;2023-06-26T10:15:08;97828.50;;;31.75;31.17
67397;BME280;57728;50.448;18.824;2023-06-26T10:17:19;97855.59;;;31.60;30.35
67397;BME280;57728;50.448;18.824;2023-06-26T10:19:22;97849.78;;;31.30;30.92
67397;BME280;57728;50.448;18.824;2023-06-26T10:21:29;97742.84;;;30.60;30.68
67397;BME280;57728;50.448;18.824;2023-06-26T10:23:36;97839.78;;;31.09;30.40
67397;BME280;57728;50.448;18.824;2023-06-26T10:25:45;97737.28;;;30.05;30.79
67397;BME280;57728;50.448;18.824;2023-06-26T10:27:54;97735.09;;;29.63;31.10
67397;BME280;57728;50.448;18.824;2023-06-26T10:30:02;97643.28;;;28.76;31.97
67397;BME280;57728;50.448;18.824;2023-06-26T10:32:12;97836.63;;;29.68;32.59
67397;BME280;57728;50.448;18.824;2023-06-26T10:34:15;97802.13;;;29.20;32.26
67397;BME280;57728;50.448;18.824;2023-06-26T10:36:19;97835.19;;;28.98;32.53
67397;BME280;57728;50.448;18.824;2023-06-26T10:38:48;97836.56;;;29.21;33.30
67397;BME280;57728;50.448;18.824;2023-06-26T10:41:10;97778.09;;;29.51;33.61
67397;BME280;57728;50.448;18.824;2023-06-26T10:43:14;97829.06;;;30.76;33.34
67397;BME280;57728;50.448;18.824;2023-06-26T10:45:20;97668.50;;;30.34;31.40
67397;BME280;57728;50.448;18.824;2023-06-26T10:47:29;97755.97;;;31.42;30.77